createdAt,value
2018-07-26T00:01:30.379Z,100127.66
2018-07-26T00:06:33.959Z,100123.73
2018-07-26T00:11:37.729Z,100132.96
2018-07-26T00:16:41.514Z,100138.78
2018-07-26T00:21:45.060Z,100131.23
2018-07-26T00:26:48.439Z,100131.42
2018-07-26T00:31:52.105Z,100132.44
2018-07-26T00:36:55.617Z,100136.06
2018-07-26T00:41:59.202Z,100136.17
2018-07-26T00:47:02.653Z,100135.08
2018-07-26T00:52:06.654Z,100130.80
2018-07-26T00:57:10.622Z,100132.88
2018-07-26T01:02:14.218Z,100126.10
2018-07-26T01:07:17.711Z,100125.96
2018-07-26T01:12:21.405Z,100136.09
2018-07-26T01:17:25.065Z,100142.57
2018-07-26T01:22:28.581Z,100137.27
2018-07-26T01:27:32.358Z,100145.06
2018-07-26T01:32:35.833Z,100149.37
2018-07-26T01:37:39.592Z,100148.16
2018-07-26T01:44:52.417Z,100153.53
2018-07-26T01:49:55.971Z,100145.39
2018-07-26T01:54:59.456Z,100145.24
2018-07-26T02:00:03.116Z,100141.94
2018-07-26T02:05:07.653Z,100137.75
2018-07-26T02:10:11.672Z,100134.24
2018-07-26T02:15:15.602Z,100139.41
2018-07-26T02:20:19.277Z,100141.70
2018-07-26T02:25:22.813Z,100140.38
2018-07-26T02:30:26.287Z,100139.84
2018-07-26T02:35:29.964Z,100140.38
2018-07-26T02:40:33.494Z,100151.25
2018-07-26T02:45:37.820Z,100151.36
2018-07-26T02:50:41.640Z,100156.54
2018-07-26T02:55:45.156Z,100152.15
2018-07-26T03:00:48.777Z,100162.77
2018-07-26T03:05:52.253Z,100161.12
2018-07-26T03:10:55.817Z,100165.21
2018-07-26T03:15:59.373Z,100163.02
2018-07-26T03:21:02.862Z,100157.88
2018-07-26T03:26:06.441Z,100165.66
2018-07-26T03:31:10.501Z,100156.98
2018-07-26T03:36:14.052Z,100155.89
2018-07-26T03:41:17.493Z,100151.83
2018-07-26T03:46:20.993Z,100148.21
2018-07-26T03:51:24.646Z,100152.36
2018-07-26T03:56:28.217Z,100165.22
2018-07-26T04:01:31.741Z,100171.92
2018-07-26T04:06:35.273Z,100166.45
2018-07-26T04:11:38.825Z,100170.92
2018-07-26T04:16:42.363Z,100169.59
2018-07-26T04:21:46.136Z,100168.61
2018-07-26T04:26:49.840Z,100170.81
2018-07-26T04:31:53.685Z,100162.60
2018-07-26T04:36:57.391Z,100167.31
2018-07-26T04:42:00.861Z,100181.99
2018-07-26T04:47:04.458Z,100179.48
2018-07-26T04:52:08.000Z,100187.38
2018-07-26T04:57:11.597Z,100191.20
2018-07-26T05:02:15.138Z,100187.92
2018-07-26T05:07:19.188Z,100196.70
2018-07-26T05:12:22.630Z,100191.55
2018-07-26T05:17:26.278Z,100192.74
2018-07-26T05:22:29.751Z,100196.02
2018-07-26T05:27:33.317Z,100195.59
2018-07-26T05:32:36.864Z,100191.00
2018-07-26T05:37:40.605Z,100199.09
2018-07-26T05:42:44.545Z,100195.27
2018-07-26T05:47:48.010Z,100185.83
2018-07-26T05:52:51.517Z,100179.81
2018-07-26T05:57:54.985Z,100192.66
2018-07-26T06:02:58.683Z,100199.36
2018-07-26T06:08:02.327Z,100203.95
2018-07-26T06:13:06.345Z,100199.56
2018-07-26T06:18:09.964Z,100205.92
2018-07-26T06:23:13.472Z,100209.11
2018-07-26T06:28:17.041Z,100212.39
2018-07-26T06:33:20.723Z,100206.48
2018-07-26T06:38:24.222Z,100213.50
2018-07-26T06:43:27.778Z,100224.02
2018-07-26T06:48:31.319Z,100220.09
2018-07-26T06:53:35.094Z,100225.69
2018-07-26T06:58:38.564Z,100223.27
2018-07-26T07:03:42.038Z,100229.08
2018-07-26T07:08:45.738Z,100233.08
2018-07-26T07:13:49.255Z,100223.86
2018-07-26T07:18:52.836Z,100235.04
2018-07-26T07:23:56.321Z,100232.69
2018-07-26T07:28:59.813Z,100233.01
2018-07-26T07:34:03.579Z,100234.33
2018-07-26T07:39:10.174Z,100229.42
2018-07-26T07:44:13.755Z,100228.40
2018-07-26T07:49:17.209Z,100240.50
2018-07-26T07:54:20.636Z,100231.58
2018-07-26T07:59:24.459Z,100226.94
2018-07-26T08:04:28.200Z,100229.77
2018-07-26T08:09:31.617Z,100232.13
2018-07-26T08:14:35.090Z,100226.92
2018-07-26T08:19:39.157Z,100229.70
2018-07-26T08:24:43.881Z,100231.42
2018-07-26T08:29:47.421Z,100233.46
2018-07-26T08:34:51.121Z,100236.22
2018-07-26T08:39:55.054Z,100229.31
2018-07-26T08:44:58.514Z,100231.24
2018-07-26T08:50:02.232Z,100233.44
2018-07-26T08:55:05.892Z,100229.94
2018-07-26T09:00:10.169Z,100227.33
2018-07-26T09:05:14.037Z,100232.38
2018-07-26T09:10:17.992Z,100230.13
2018-07-26T09:15:21.799Z,100227.43
2018-07-26T09:20:25.338Z,100224.97
2018-07-26T09:25:28.942Z,100222.59
2018-07-26T09:30:32.644Z,100224.78
2018-07-26T09:35:36.324Z,100218.19
2018-07-26T09:40:39.864Z,100213.63
2018-07-26T09:45:43.441Z,100209.28
2018-07-26T09:50:47.088Z,100213.39
2018-07-26T09:55:51.261Z,100204.39
2018-07-26T10:01:00.186Z,100207.67
2018-07-26T10:06:03.838Z,100203.45
2018-07-26T10:11:07.522Z,100207.75
2018-07-26T10:16:11.495Z,100211.80
2018-07-26T10:21:15.430Z,100206.84
2018-07-26T10:26:18.967Z,100199.59
2018-07-26T10:31:22.633Z,100188.64
2018-07-26T10:36:26.338Z,100193.91
2018-07-26T10:41:29.870Z,100190.49
2018-07-26T10:46:33.374Z,100180.38
2018-07-26T10:51:36.964Z,100183.99
2018-07-26T10:56:40.441Z,100172.34
2018-07-26T11:01:44.111Z,100180.58
2018-07-26T11:06:47.653Z,100178.26
2018-07-26T11:11:51.110Z,100169.77
2018-07-26T11:16:55.101Z,100159.47
2018-07-26T11:21:58.819Z,100158.78
2018-07-26T11:27:02.633Z,100152.47
2018-07-26T11:32:06.340Z,100152.63
2018-07-26T11:37:09.946Z,100149.23
2018-07-26T11:42:13.709Z,100153.73
2018-07-26T11:47:17.165Z,100144.19
2018-07-26T11:52:20.965Z,100141.80
2018-07-26T11:57:25.162Z,100154.33
2018-07-26T12:02:28.847Z,100146.69
2018-07-26T12:07:32.587Z,100127.91
2018-07-26T12:12:36.353Z,100132.92
2018-07-26T12:17:39.954Z,100116.48
2018-07-26T12:22:43.960Z,100117.77
2018-07-26T12:27:47.459Z,100110.61
2018-07-26T12:32:51.032Z,100105.44
2018-07-26T12:37:54.617Z,100114.47
2018-07-26T12:42:58.290Z,100107.74
2018-07-26T12:48:01.818Z,100101.18
2018-07-26T12:53:05.691Z,100101.33
2018-07-26T12:58:09.665Z,100096.66
2018-07-26T13:03:13.273Z,100104.48
2018-07-26T13:08:16.928Z,100098.00
2018-07-26T13:13:20.458Z,100089.22
2018-07-26T13:18:24.442Z,100089.22
2018-07-26T13:23:27.929Z,100083.86
2018-07-26T13:28:31.617Z,100080.17
2018-07-26T13:33:35.103Z,100067.25
2018-07-26T13:38:38.661Z,100074.83
2018-07-26T13:43:42.471Z,100065.59
2018-07-26T13:48:46.385Z,100061.09
2018-07-26T13:53:49.889Z,100050.24
2018-07-26T13:58:53.345Z,100050.56
2018-07-26T14:03:56.977Z,100052.49
2018-07-26T14:09:00.394Z,100049.38
2018-07-26T14:14:03.842Z,100040.78
2018-07-26T14:19:08.423Z,100042.30
2018-07-26T14:24:17.435Z,100036.91
2018-07-26T14:29:21.696Z,100031.92
2018-07-26T14:34:25.664Z,100031.88
2018-07-26T14:39:29.262Z,100018.70
2018-07-26T14:44:32.847Z,100024.22
2018-07-26T14:49:36.427Z,100017.39
2018-07-26T14:54:39.950Z,100017.41
2018-07-26T14:59:43.490Z,100021.26
2018-07-26T15:04:47.093Z,100013.47
2018-07-26T15:09:50.740Z,100010.98
2018-07-26T15:14:54.209Z,100011.52
2018-07-26T15:19:58.067Z,100004.36
2018-07-26T15:25:01.607Z,100008.73
2018-07-26T15:30:06.119Z,100012.70
2018-07-26T15:35:09.643Z,100005.99
2018-07-26T15:40:13.672Z,100011.27
2018-07-26T15:45:17.812Z,100010.87
2018-07-26T15:50:21.920Z,100011.34
2018-07-26T15:55:25.540Z,100006.14
2018-07-26T16:00:29.451Z,100012.44
2018-07-26T16:05:33.061Z,100024.34
2018-07-26T16:10:36.527Z,100013.17
2018-07-26T16:15:40.661Z,100010.24
2018-07-26T16:20:44.202Z,100002.78
2018-07-26T16:25:47.714Z,100012.78
2018-07-26T16:30:51.172Z,100015.37
2018-07-26T16:35:54.885Z,100005.33
2018-07-26T16:40:58.375Z,100012.72
2018-07-26T16:46:02.739Z,100008.42
2018-07-26T16:51:06.437Z,100010.70
2018-07-26T16:56:10.184Z,100013.22
2018-07-26T17:01:13.754Z,100022.94
2018-07-26T17:06:17.225Z,100013.19
2018-07-26T17:11:20.711Z,100010.16
2018-07-26T17:16:24.262Z,100024.11
2018-07-26T17:21:28.066Z,100020.28
2018-07-26T17:26:31.845Z,100030.97
2018-07-26T17:31:35.653Z,100024.77
2018-07-26T17:36:39.440Z,100026.77
2018-07-26T17:41:43.340Z,100030.40
2018-07-26T17:46:46.993Z,100036.52
2018-07-26T17:51:50.465Z,100036.33
2018-07-26T17:56:54.316Z,100035.47
2018-07-26T18:01:57.927Z,100045.12
2018-07-26T18:07:01.951Z,100046.47
2018-07-26T18:12:05.410Z,100051.23
2018-07-26T18:17:08.883Z,100052.30
2018-07-26T18:22:12.431Z,100060.87
2018-07-26T18:27:15.825Z,100058.38
2018-07-26T18:32:19.546Z,100056.97
2018-07-26T18:37:23.049Z,100062.33
2018-07-26T18:42:26.978Z,100069.09
2018-07-26T18:47:30.717Z,100070.51
2018-07-26T18:52:34.179Z,100077.66
2018-07-26T18:57:39.054Z,100089.13
2018-07-26T19:02:43.938Z,100095.91
2018-07-26T19:07:48.688Z,100096.02
2018-07-26T19:12:52.691Z,100102.45
2018-07-26T19:17:57.378Z,100109.22
2018-07-26T19:23:00.952Z,100120.38
2018-07-26T19:28:04.573Z,100126.70
2018-07-26T19:33:08.362Z,100120.11
2018-07-26T19:38:12.300Z,100125.34
2018-07-26T19:43:16.285Z,100124.87
2018-07-26T19:48:19.754Z,100122.74
2018-07-26T19:53:23.181Z,100118.47
2018-07-26T19:58:27.236Z,100126.11
2018-07-26T20:03:30.782Z,100126.67
2018-07-26T20:08:34.633Z,100131.90
2018-07-26T20:13:38.784Z,100129.57
2018-07-26T20:18:42.279Z,100132.91
2018-07-26T20:23:45.983Z,100128.51
2018-07-26T20:28:49.774Z,100131.00
2018-07-26T20:33:53.345Z,100137.77
2018-07-26T20:38:57.569Z,100134.11
2018-07-26T20:44:02.047Z,100140.20
2018-07-26T20:49:05.715Z,100126.27
2018-07-26T20:54:09.772Z,100138.38
2018-07-26T20:59:13.983Z,100145.16
2018-07-26T21:04:17.394Z,100139.08
2018-07-26T21:09:21.263Z,100147.09
2018-07-26T21:14:24.760Z,100150.44
2018-07-26T21:19:28.422Z,100152.27
2018-07-26T21:24:32.689Z,100147.06
2018-07-26T21:29:36.313Z,100150.23
2018-07-26T21:34:39.949Z,100153.30
2018-07-26T21:39:43.405Z,100148.80
2018-07-26T21:44:47.141Z,100147.93
2018-07-26T21:49:51.021Z,100152.87
2018-07-26T21:54:55.217Z,100146.59
2018-07-26T21:59:58.750Z,100144.02
2018-07-26T22:05:02.347Z,100144.59
2018-07-26T22:10:06.201Z,100140.30
2018-07-26T22:15:09.648Z,100148.22
2018-07-26T22:20:13.519Z,100152.67
2018-07-26T22:25:16.941Z,100154.03
2018-07-26T22:30:20.876Z,100150.84
2018-07-26T22:35:24.436Z,100152.83
2018-07-26T22:40:28.191Z,100149.86
2018-07-26T22:45:31.811Z,100138.34
2018-07-26T22:50:35.304Z,100139.36
2018-07-26T22:55:38.872Z,100142.81
2018-07-26T23:00:42.671Z,100152.45
2018-07-26T23:05:46.148Z,100150.81
2018-07-26T23:10:49.797Z,100153.12
2018-07-26T23:15:53.416Z,100145.19
2018-07-26T23:20:56.834Z,100150.59
2018-07-26T23:26:00.540Z,100152.43
2018-07-26T23:31:04.168Z,100148.41
2018-07-26T23:36:07.749Z,100141.64
2018-07-26T23:41:11.308Z,100136.00
2018-07-26T23:46:15.007Z,100141.97
2018-07-26T23:51:18.638Z,100142.08
2018-07-26T23:56:22.112Z,100141.97
